Time;durP1;ratioP1;P1;durP2;ratioP2;P2;SDS_P1;SDS_P2;PMS_P1;PMS_P2;Temp;Humidity;BMP_temperature;BMP_pressure;BME280_temperature;BME280_humidity;BME280_pressure;Samples;Min_cycle;Max_cycle;Signal;HPM_P1;HPM_P2
2023/01/19 00:01:37;;;;;;;1.17;0.40;;;23.00;37.70;;;;;;5044511;27;83851;-58
2023/01/19 00:04:05;;;;;;;0.73;0.60;;;22.90;37.70;;;;;;5044953;27;82807;-59
2023/01/19 00:06:35;;;;;;;0.40;0.40;;;22.90;37.80;;;;;;5044510;27;81849;-58
2023/01/19 00:09:03;;;;;;;0.53;0.50;;;22.80;37.80;;;;;;5044358;27;83167;-58
2023/01/19 00:11:31;;;;;;;1.83;0.40;;;22.80;37.80;;;;;;5044060;28;83096;-58
2023/01/19 00:13:59;;;;;;;0.73;0.53;;;22.70;37.80;;;;;;5044648;27;82836;-58
2023/01/19 00:16:27;;;;;;;0.57;0.50;;;22.70;37.90;;;;;;5044803;28;82018;-58
2023/01/19 00:18:55;;;;;;;0.50;0.50;;;22.60;37.80;;;;;;5044506;27;82801;-58
2023/01/19 00:21:23;;;;;;;1.13;0.63;;;22.60;37.80;;;;;;5044075;28;84978;-57
2023/01/19 00:23:53;;;;;;;0.43;0.43;;;22.50;37.90;;;;;;5044451;27;82589;-59
2023/01/19 00:26:21;;;;;;;0.57;0.50;;;22.50;37.90;;;;;;5044777;27;82040;-59
2023/01/19 00:28:50;;;;;;;0.60;0.60;;;22.40;37.90;;;;;;5044561;28;84021;-59
2023/01/19 00:31:20;;;;;;;0.63;0.63;;;22.40;37.90;;;;;;5044124;28;83082;-59
2023/01/19 00:33:50;;;;;;;1.03;0.87;;;22.40;38.00;;;;;;5044421;28;82737;-59
2023/01/19 00:36:19;;;;;;;0.50;0.50;;;22.30;38.00;;;;;;5044692;27;82072;-59
2023/01/19 00:38:47;;;;;;;1.30;0.50;;;22.20;37.90;;;;;;5044245;28;82961;-59
2023/01/19 00:41:16;;;;;;;0.43;0.43;;;22.20;38.00;;;;;;5043817;28;83243;-59
2023/01/19 00:43:43;;;;;;;0.30;0.30;;;22.10;38.00;;;;;;5043552;27;83702;-59
2023/01/19 00:46:11;;;;;;;1.00;0.50;;;22.10;38.00;;;;;;5051199;27;83083;-59
2023/01/19 00:48:40;;;;;;;1.27;0.53;;;22.10;38.00;;;;;;5064209;27;82742;-59
2023/01/19 00:51:08;;;;;;;0.60;0.40;;;22.10;38.10;;;;;;5064030;27;83330;-59
2023/01/19 00:53:36;;;;;;;0.80;0.33;;;22.00;38.00;;;;;;5064130;27;82831;-60
2023/01/19 00:56:04;;;;;;;0.60;0.60;;;22.00;38.00;;;;;;5063968;27;82014;-59
2023/01/19 00:58:33;;;;;;;0.60;0.60;;;22.00;38.10;;;;;;5045143;27;83527;-59
2023/01/19 01:01:03;;;;;;;2.33;0.67;;;22.00;38.20;;;;;;5044807;27;83327;-59
2023/01/19 01:03:32;;;;;;;0.50;0.50;;;21.90;38.10;;;;;;5023974;28;82811;-59
2023/01/19 01:06:00;;;;;;;0.73;0.40;;;21.90;38.10;;;;;;5056143;27;82892;-59
2023/01/19 01:08:28;;;;;;;0.60;0.37;;;21.90;38.10;;;;;;5053653;27;83059;-59
2023/01/19 01:10:56;;;;;;;1.33;0.40;;;21.80;38.00;;;;;;5026986;28;83766;-59
2023/01/19 01:13:24;;;;;;;0.60;0.60;;;21.80;38.10;;;;;;5043761;28;84340;-60
2023/01/19 01:15:56;;;;;;;0.67;0.67;;;21.80;38.10;;;;;;5043177;28;82071;-59
2023/01/19 01:18:24;;;;;;;0.73;0.50;;;21.70;38.10;;;;;;5043579;28;84067;-59
2023/01/19 01:20:52;;;;;;;0.50;0.50;;;21.70;38.10;;;;;;5043431;28;83014;-59
2023/01/19 01:23:23;;;;;;;1.40;0.40;;;21.70;38.10;;;;;;5055897;27;83593;-60
2023/01/19 01:25:51;;;;;;;0.90;0.60;;;21.70;38.20;;;;;;5061165;27;82052;-60
2023/01/19 01:28:19;;;;;;;0.87;0.47;;;21.60;38.10;;;;;;5057354;27;81670;-59
2023/01/19 01:30:47;;;;;;;0.67;0.50;;;21.60;38.20;;;;;;5044175;27;83023;-60
2023/01/19 01:33:16;;;;;;;1.47;0.67;;;21.60;38.20;;;;;;5043023;27;82039;-61
2023/01/19 01:36:05;;;;;;;0.60;0.30;;;21.50;38.10;;;;;;5045750;27;82935;-59
2023/01/19 01:38:33;;;;;;;1.93;1.07;;;21.50;38.10;;;;;;5063526;27;82805;-61
2023/01/19 01:41:01;;;;;;;4.00;0.40;;;21.50;38.10;;;;;;5052842;27;84129;-60
2023/01/19 01:43:42;;;;;;;1.17;1.07;;;21.50;38.20;;;;;;5043484;28;82542;-60
2023/01/19 01:46:14;;;;;;;0.47;0.47;;;21.40;38.20;;;;;;5043537;27;82061;-60
2023/01/19 01:48:45;;;;;;;0.50;0.50;;;21.40;38.20;;;;;;5043240;27;82581;-59
2023/01/19 01:51:26;;;;;;;0.83;0.43;;;21.40;38.20;;;;;;5050602;27;84180;-58
2023/01/19 01:54:06;;;;;;;3.27;0.43;;;21.40;38.20;;;;;;5045310;27;82725;-60
2023/01/19 01:56:36;;;;;;;0.97;0.70;;;21.40;38.20;;;;;;5042790;28;81933;-60
2023/01/19 01:59:06;;;;;;;0.40;0.40;;;21.30;38.20;;;;;;5042808;27;83103;-60
2023/01/19 02:04:21;;;;;;;0.50;0.50;;;21.30;38.20;;;;;;5043418;27;83593;-61
2023/01/19 02:15:16;;;;;;;1.17;0.60;;;21.20;38.30;;;;;;5042643;27;82819;-60
2023/01/19 02:17:44;;;;;;;0.50;0.50;;;21.10;38.20;;;;;;5042790;27;82036;-60
2023/01/19 02:20:14;;;;;;;0.40;0.40;;;21.10;38.20;;;;;;5043235;28;82799;-60
2023/01/19 02:22:46;;;;;;;1.43;0.97;;;21.10;38.30;;;;;;5042732;28;83567;-60
2023/01/19 02:25:15;;;;;;;0.57;0.40;;;21.10;38.30;;;;;;5042834;28;82039;-60
2023/01/19 02:27:43;;;;;;;0.77;0.70;;;21.10;38.90;;;;;;5042065;28;82850;-59
2023/01/19 02:30:11;;;;;;;1.33;1.07;;;21.00;38.20;;;;;;5042635;28;82816;-59
2023/01/19 02:32:39;;;;;;;0.70;0.70;;;21.00;38.20;;;;;;5041859;28;84088;-59
2023/01/19 02:35:08;;;;;;;2.17;0.77;;;21.00;38.30;;;;;;5042258;28;83797;-59
2023/01/19 02:37:38;;;;;;;0.40;0.40;;;21.00;38.30;;;;;;5043455;27;82118;-60
2023/01/19 02:40:08;;;;;;;0.80;0.50;;;21.00;38.30;;;;;;5049814;27;84049;-59
2023/01/19 02:42:39;;;;;;;0.87;0.53;;;21.00;38.30;;;;;;5051083;27;82990;-59
2023/01/19 02:45:08;;;;;;;0.80;0.50;;;21.00;38.40;;;;;;5066123;27;82822;-59
2023/01/19 02:47:40;;;;;;;2.53;0.83;;;20.90;38.30;;;;;;5059706;27;82034;-59
2023/01/19 02:50:40;;;;;;;1.67;0.67;;;20.90;38.30;;;;;;5047147;27;82845;-59
2023/01/19 02:53:29;;;;;;;1.17;0.60;;;20.90;38.40;;;;;;5064676;27;84146;-60
2023/01/19 02:55:58;;;;;;;1.13;0.60;;;20.90;38.30;;;;;;5030692;27;83757;-59
2023/01/19 02:58:31;;;;;;;0.70;0.60;;;20.80;38.30;;;;;;5056728;27;81937;-59
2023/01/19 03:01:03;;;;;;;0.47;0.47;;;20.80;39.00;;;;;;5046017;28;82779;-59
2023/01/19 03:03:32;;;;;;;1.90;0.80;;;20.80;38.40;;;;;;5045771;28;83013;-59
2023/01/19 03:06:03;;;;;;;0.60;0.60;;;20.80;38.40;;;;;;5045117;27;82910;-59
2023/01/19 03:08:37;;;;;;;0.50;0.50;;;20.80;38.40;;;;;;5045994;27;82004;-59
2023/01/19 03:11:05;;;;;;;0.97;0.97;;;20.80;38.40;;;;;;5046031;27;82501;-59
2023/01/19 03:13:41;;;;;;;0.77;0.70;;;20.70;39.00;;;;;;5045468;27;84265;-59
2023/01/19 03:16:13;;;;;;;2.13;0.70;;;20.70;38.30;;;;;;5045693;27;82952;-59
2023/01/19 03:18:43;;;;;;;2.80;0.47;;;20.70;38.30;;;;;;5046469;27;83022;-60
2023/01/19 03:21:12;;;;;;;0.57;0.47;;;20.70;38.40;;;;;;5045700;27;83874;-60
2023/01/19 03:23:41;;;;;;;1.13;0.80;;;20.70;38.40;;;;;;5045654;27;84284;-60
2023/01/19 03:26:11;;;;;;;3.43;1.13;;;20.70;38.40;;;;;;5045402;27;82131;-60
2023/01/19 03:28:41;;;;;;;2.00;0.60;;;20.70;38.40;;;;;;5044751;27;81980;-60
2023/01/19 03:31:11;;;;;;;0.70;0.70;;;20.60;38.40;;;;;;5057808;27;83912;-60
2023/01/19 03:33:40;;;;;;;0.40;0.40;;;20.60;38.40;;;;;;5044754;27;84301;-60
2023/01/19 03:36:11;;;;;;;0.90;0.77;;;20.60;39.10;;;;;;5044789;27;84229;-60
2023/01/19 03:38:39;;;;;;;1.60;0.67;;;20.60;38.40;;;;;;5045288;27;81888;-60
2023/01/19 03:41:08;;;;;;;0.30;0.30;;;20.60;38.40;;;;;;5050683;27;82550;-60
2023/01/19 03:43:36;;;;;;;0.33;0.33;;;20.60;38.40;;;;;;5047755;27;84933;-60
2023/01/19 03:46:05;;;;;;;1.07;0.60;;;20.60;38.40;;;;;;5045024;27;87522;-59
2023/01/19 03:48:33;;;;;;;0.67;0.50;;;20.50;38.40;;;;;;5044502;27;81924;-60
2023/01/19 03:51:03;;;;;;;0.60;0.60;;;20.60;38.50;;;;;;5044988;27;81863;-60
2023/01/19 03:53:31;;;;;;;0.77;0.23;;;20.60;38.50;;;;;;5056939;27;82080;-60
2023/01/19 03:55:59;;;;;;;0.30;0.30;;;20.50;38.40;;;;;;5044572;27;82966;-60
2023/01/19 03:58:27;;;;;;;0.50;0.50;;;20.50;39.10;;;;;;5044714;27;82831;-60
2023/01/19 04:00:55;;;;;;;0.23;0.23;;;20.50;38.40;;;;;;5045539;27;82384;-60
2023/01/19 04:03:25;;;;;;;1.03;0.50;;;20.50;38.40;;;;;;5044931;28;83089;-60
2023/01/19 04:05:53;;;;;;;0.20;0.20;;;20.50;38.40;;;;;;5044889;28;83857;-60
2023/01/19 04:08:21;;;;;;;1.03;0.97;;;20.50;38.50;;;;;;5044274;28;82972;-60
2023/01/19 04:10:48;;;;;;;2.33;0.57;;;20.50;38.50;;;;;;5044601;28;82762;-60
2023/01/19 04:13:16;;;;;;;0.20;0.20;;;20.40;38.40;;;;;;5044803;28;81950;-60
2023/01/19 04:15:44;;;;;;;0.40;0.40;;;20.40;38.40;;;;;;5044759;28;83934;-60
2023/01/19 04:18:12;;;;;;;0.40;0.40;;;20.40;38.50;;;;;;5044311;27;82016;-61
2023/01/19 04:20:42;;;;;;;0.30;0.30;;;20.40;38.50;;;;;;5044393;28;83854;-60
2023/01/19 04:23:10;;;;;;;1.43;0.47;;;20.40;38.50;;;;;;5044012;28;83013;-60
2023/01/19 04:25:39;;;;;;;0.53;0.53;;;20.40;38.50;;;;;;5045608;27;82816;-60
2023/01/19 04:28:07;;;;;;;0.57;0.30;;;20.30;38.40;;;;;;5044469;27;82007;-60
2023/01/19 04:30:35;;;;;;;0.53;0.40;;;20.30;38.40;;;;;;5027744;27;83695;-60
2023/01/19 04:33:03;;;;;;;0.43;0.43;;;20.30;38.40;;;;;;5047083;27;84876;-59
2023/01/19 04:35:33;;;;;;;0.40;0.40;;;20.30;38.40;;;;;;5061478;27;82554;-60
2023/01/19 04:38:02;;;;;;;0.30;0.30;;;20.30;38.40;;;;;;5044317;27;81931;-60
2023/01/19 04:40:31;;;;;;;0.20;0.20;;;20.30;38.50;;;;;;5043972;27;83106;-60
2023/01/19 04:42:59;;;;;;;0.30;0.30;;;20.30;38.50;;;;;;5044115;27;82986;-59
2023/01/19 04:45:27;;;;;;;0.77;0.63;;;20.30;38.50;;;;;;5044199;27;82568;-60
2023/01/19 04:47:55;;;;;;;0.40;0.40;;;20.30;38.50;;;;;;5043308;27;82806;-59
2023/01/19 04:50:23;;;;;;;0.20;0.20;;;20.20;38.50;;;;;;5044005;27;81726;-60
2023/01/19 04:52:51;;;;;;;1.00;0.43;;;20.20;38.50;;;;;;5043207;27;81955;-60
2023/01/19 04:55:21;;;;;;;0.17;0.17;;;20.20;38.50;;;;;;5043503;27;82062;-59
2023/01/19 04:57:49;;;;;;;0.73;0.40;;;20.20;38.50;;;;;;5044371;27;82863;-60
2023/01/19 05:00:18;;;;;;;0.40;0.40;;;20.20;38.50;;;;;;5042322;27;82751;-60
2023/01/19 05:02:46;;;;;;;0.50;0.50;;;20.20;38.50;;;;;;5043686;27;82577;-60
2023/01/19 05:05:14;;;;;;;0.67;0.33;;;20.20;38.50;;;;;;5043988;27;82957;-59
2023/01/19 05:07:42;;;;;;;0.30;0.30;;;20.10;38.40;;;;;;5057344;27;82085;-60
2023/01/19 05:10:11;;;;;;;0.30;0.30;;;20.10;38.50;;;;;;5062498;27;82954;-59
2023/01/19 05:12:41;;;;;;;0.60;0.60;;;20.10;38.50;;;;;;5048591;27;84077;-59
2023/01/19 05:15:10;;;;;;;0.40;0.40;;;20.10;38.50;;;;;;5064186;27;82840;-60
2023/01/19 05:17:38;;;;;;;0.43;0.43;;;20.10;38.50;;;;;;5063680;27;81985;-59
2023/01/19 05:20:07;;;;;;;0.63;0.40;;;20.10;38.50;;;;;;5063043;27;82646;-59
2023/01/19 05:22:35;;;;;;;1.37;0.40;;;20.10;38.50;;;;;;5062905;27;84984;-59
2023/01/19 05:25:03;;;;;;;0.30;0.30;;;20.10;38.50;;;;;;5063380;27;84944;-60
2023/01/19 05:27:31;;;;;;;0.20;0.20;;;20.10;38.50;;;;;;5063350;27;82042;-59
2023/01/19 05:30:01;;;;;;;2.80;0.40;;;20.00;38.50;;;;;;5063473;27;82676;-60
2023/01/19 05:32:29;;;;;;;1.07;0.37;;;20.00;38.50;;;;;;5063939;27;83080;-60
2023/01/19 05:34:57;;;;;;;1.60;0.80;;;20.00;39.20;;;;;;5052547;27;82169;-59
2023/01/19 05:37:25;;;;;;;0.30;0.30;;;20.00;38.50;;;;;;5053396;27;82033;-59
2023/01/19 05:39:53;;;;;;;1.23;0.63;;;20.00;38.50;;;;;;5063423;27;83260;-59
2023/01/19 05:42:21;;;;;;;0.30;0.30;;;20.00;38.60;;;;;;5063000;27;83215;-60
2023/01/19 05:44:49;;;;;;;0.33;0.33;;;20.00;38.50;;;;;;5061625;27;82762;-60
2023/01/19 05:47:18;;;;;;;0.87;0.40;;;20.00;38.60;;;;;;5055720;27;83063;-60
2023/01/19 05:49:46;;;;;;;0.47;0.30;;;20.00;38.60;;;;;;5043935;27;81925;-59
2023/01/19 05:52:15;;;;;;;0.73;0.73;;;19.90;38.50;;;;;;5061438;27;82981;-59
2023/01/19 05:54:43;;;;;;;0.27;0.27;;;19.90;39.20;;;;;;5033398;28;83909;-59
2023/01/19 05:57:11;;;;;;;3.93;0.57;;;19.90;38.50;;;;;;5023553;28;81987;-61
2023/01/19 05:59:39;;;;;;;1.47;0.50;;;19.90;38.50;;;;;;5039751;28;82612;-60
2023/01/19 06:02:07;;;;;;;0.43;0.37;;;19.90;38.60;;;;;;5042961;27;82995;-60
2023/01/19 06:04:37;;;;;;;0.20;0.20;;;19.90;38.60;;;;;;5043758;27;81698;-60
2023/01/19 06:07:05;;;;;;;0.37;0.37;;;19.90;38.70;;;;;;5043241;28;81953;-60
2023/01/19 06:09:33;;;;;;;0.40;0.40;;;19.90;38.60;;;;;;5042971;27;82865;-59
2023/01/19 06:12:01;;;;;;;0.90;0.90;;;19.90;38.70;;;;;;5044125;27;85330;-60
2023/01/19 06:14:29;;;;;;;0.37;0.37;;;19.80;38.60;;;;;;5046860;28;83671;-59
2023/01/19 06:16:57;;;;;;;1.23;0.60;;;19.80;38.60;;;;;;5046891;27;81905;-60
2023/01/19 06:19:25;;;;;;;0.27;0.27;;;19.80;38.60;;;;;;5046235;28;84082;-60
2023/01/19 06:21:55;;;;;;;0.57;0.50;;;19.80;38.60;;;;;;5062833;27;82959;-59
2023/01/19 06:24:24;;;;;;;0.50;0.50;;;19.80;38.60;;;;;;5065954;27;82685;-60
2023/01/19 06:26:52;;;;;;;0.40;0.40;;;19.80;38.60;;;;;;5065802;27;82050;-60
2023/01/19 06:29:20;;;;;;;0.20;0.20;;;19.80;38.70;;;;;;5066751;27;84139;-59
2023/01/19 06:31:48;;;;;;;2.73;0.50;;;19.80;38.70;;;;;;5061957;27;84414;-60
2023/01/19 06:34:17;;;;;;;0.63;0.40;;;19.70;38.60;;;;;;5047071;27;83902;-59
2023/01/19 06:36:45;;;;;;;0.27;0.27;;;19.70;38.70;;;;;;5045877;27;82982;-59
2023/01/19 06:39:15;;;;;;;0.60;0.30;;;19.70;38.60;;;;;;5057795;27;82630;-60
2023/01/19 06:41:43;;;;;;;2.10;0.53;;;19.70;38.70;;;;;;5066214;27;83924;-59
2023/01/19 06:44:11;;;;;;;0.30;0.30;;;19.70;38.70;;;;;;5054944;27;83474;-60
2023/01/19 06:46:39;;;;;;;0.30;0.30;;;19.70;39.30;;;;;;5066340;27;82134;-59
2023/01/19 06:49:07;;;;;;;0.40;0.40;;;19.70;38.70;;;;;;5064252;27;82980;-59
2023/01/19 06:51:35;;;;;;;0.30;0.30;;;19.70;38.70;;;;;;5066225;27;82702;-59
2023/01/19 06:54:04;;;;;;;0.30;0.30;;;19.70;38.70;;;;;;5059443;27;82987;-59
2023/01/19 06:56:33;;;;;;;0.40;0.40;;;19.70;38.70;;;;;;5047233;27;82029;-59
2023/01/19 06:59:01;;;;;;;2.73;0.40;;;19.50;38.60;;;;;;5063294;27;83923;-59
2023/01/19 07:01:30;;;;;;;0.73;0.50;;;19.60;38.70;;;;;;5055375;27;85036;-60
2023/01/19 07:03:58;;;;;;;1.23;0.57;;;19.60;38.60;;;;;;5027451;28;84836;-60
2023/01/19 07:06:26;;;;;;;1.70;0.30;;;19.60;38.60;;;;;;5030397;28;81942;-61
2023/01/19 07:08:54;;;;;;;0.63;0.47;;;19.70;38.70;;;;;;5045291;27;81863;-60
2023/01/19 07:11:22;;;;;;;0.30;0.30;;;19.70;38.70;;;;;;5045457;27;82999;-60
2023/01/19 07:14:02;;;;;;;0.30;0.30;;;19.80;38.60;;;;;;5045494;27;81911;-60
2023/01/19 07:16:30;;;;;;;0.33;0.33;;;19.90;38.60;;;;;;5045815;28;82067;-60
2023/01/19 07:18:58;;;;;;;0.30;0.30;;;20.10;38.60;;;;;;5045273;27;84885;-59
2023/01/19 07:21:26;;;;;;;0.37;0.37;;;20.20;38.60;;;;;;5044849;28;83332;-60
2023/01/19 07:23:56;;;;;;;0.43;0.30;;;20.20;38.50;;;;;;5043996;27;82933;-59
2023/01/19 07:26:26;;;;;;;0.50;0.50;;;20.30;38.50;;;;;;5045050;27;82956;-60
2023/01/19 07:28:54;;;;;;;3.10;0.73;;;20.30;38.40;;;;;;5045649;28;82950;-60
2023/01/19 07:31:24;;;;;;;0.30;0.30;;;20.30;38.50;;;;;;5045561;28;82885;-60
2023/01/19 07:33:52;;;;;;;0.40;0.40;;;20.30;38.50;;;;;;5044986;28;82043;-59
2023/01/19 07:36:20;;;;;;;1.40;0.20;;;20.30;38.40;;;;;;5045492;28;81946;-60
2023/01/19 07:38:48;;;;;;;0.10;0.10;;;20.30;38.40;;;;;;5045106;27;83043;-59
2023/01/19 07:41:16;;;;;;;5.63;0.73;;;20.30;38.50;;;;;;5042250;28;87905;-60
2023/01/19 07:43:44;;;;;;;4.03;0.50;;;20.30;38.50;;;;;;5042992;28;88946;-60
2023/01/19 07:46:12;;;;;;;0.20;0.20;;;20.30;38.50;;;;;;5042977;27;87034;-60
2023/01/19 07:48:43;;;;;;;0.20;0.20;;;20.30;38.50;;;;;;5047150;27;87103;-60
2023/01/19 07:51:16;;;;;;;1.97;0.70;;;20.20;39.30;;;;;;5049892;27;88941;-60
2023/01/19 07:53:44;;;;;;;0.87;0.37;;;20.20;38.50;;;;;;5044624;27;89866;-60
2023/01/19 07:56:13;;;;;;;1.80;0.83;;;20.20;38.60;;;;;;5042040;27;86958;-59
2023/01/19 07:58:41;;;;;;;0.40;0.40;;;20.20;38.60;;;;;;5055638;27;87071;-59
2023/01/19 08:01:10;;;;;;;1.20;0.40;;;20.10;38.50;;;;;;5061892;27;88084;-60
2023/01/19 08:03:38;;;;;;;0.47;0.47;;;20.10;38.60;;;;;;5060625;27;88232;-59
2023/01/19 08:06:10;;;;;;;0.40;0.40;;;20.10;38.60;;;;;;5054641;27;87010;-59
2023/01/19 08:08:38;;;;;;;1.00;0.43;;;20.00;38.60;;;;;;5044332;27;86259;-60
2023/01/19 08:11:07;;;;;;;0.30;0.30;;;20.00;38.60;;;;;;5045666;27;87296;-60
2023/01/19 08:13:35;;;;;;;0.33;0.33;;;20.00;38.60;;;;;;5049513;27;87797;-60
2023/01/19 08:16:03;;;;;;;0.60;0.60;;;20.00;38.70;;;;;;5044721;27;87946;-60
2023/01/19 08:18:31;;;;;;;0.20;0.20;;;20.00;38.70;;;;;;5041323;27;87102;-60
2023/01/19 08:20:59;;;;;;;0.20;0.20;;;20.00;38.70;;;;;;5040444;28;86973;-60
2023/01/19 08:23:29;;;;;;;2.20;0.57;;;20.00;38.60;;;;;;5039513;28;88952;-60
2023/01/19 08:25:57;;;;;;;0.30;0.30;;;20.10;38.70;;;;;;5040774;27;87430;-60
2023/01/19 08:28:25;;;;;;;1.90;0.50;;;20.20;38.60;;;;;;5041743;28;87097;-60
2023/01/19 08:30:54;;;;;;;0.40;0.40;;;20.30;38.60;;;;;;5040938;28;89325;-61
2023/01/19 08:33:22;;;;;;;0.83;0.47;;;20.50;38.60;;;;;;5042160;28;87782;-60
2023/01/19 08:35:51;;;;;;;0.30;0.30;;;20.60;38.50;;;;;;5042230;27;86911;-61
2023/01/19 08:38:19;;;;;;;0.43;0.43;;;20.80;38.50;;;;;;5042131;28;87163;-60
2023/01/19 08:40:48;;;;;;;0.70;0.30;;;21.10;38.50;;;;;;5041287;28;90104;-60
2023/01/19 08:43:17;;;;;;;0.30;0.30;;;21.30;38.30;;;;;;5041506;27;88901;-60
2023/01/19 08:45:47;;;;;;;0.57;0.30;;;21.50;38.90;;;;;;5041833;27;87095;-60
2023/01/19 08:48:16;;;;;;;0.53;0.37;;;21.70;38.10;;;;;;5041649;28;86990;-60
2023/01/19 08:50:45;;;;;;;0.40;0.40;;;21.90;38.00;;;;;;5041790;28;87079;-60
2023/01/19 08:53:13;;;;;;;0.30;0.30;;;22.10;38.00;;;;;;5041749;27;87039;-60
2023/01/19 08:55:41;;;;;;;0.40;0.30;;;22.30;37.90;;;;;;5040692;28;88051;-60
2023/01/19 08:58:11;;;;;;;2.03;0.80;;;22.50;37.90;;;;;;5041668;28;86274;-60
2023/01/19 09:00:39;;;;;;;0.20;0.20;;;22.60;37.70;;;;;;5041063;28;87979;-58
2023/01/19 09:03:08;;;;;;;0.30;0.30;;;22.80;37.70;;;;;;5041053;27;87840;-58
2023/01/19 09:05:37;;;;;;;0.63;0.30;;;22.90;38.30;;;;;;5041074;28;87907;-58
2023/01/19 09:08:07;;;;;;;0.60;0.37;;;23.00;37.60;;;;;;5041626;27;86881;-58
2023/01/19 09:10:37;;;;;;;0.43;0.40;;;23.10;37.50;;;;;;5040946;28;88040;-59
2023/01/19 09:13:07;;;;;;;1.70;0.57;;;23.20;37.50;;;;;;5041069;27;87050;-58
2023/01/19 09:15:36;;;;;;;0.73;0.50;;;23.30;37.50;;;;;;5041032;28;87052;-58
2023/01/19 09:18:05;;;;;;;2.43;0.40;;;23.40;37.40;;;;;;5041332;28;86985;-58
2023/01/19 09:20:34;;;;;;;0.67;0.67;;;23.50;37.30;;;;;;5040766;28;88278;-58
2023/01/19 09:23:03;;;;;;;0.93;0.47;;;23.60;37.30;;;;;;5041210;28;86605;-58
2023/01/19 09:25:31;;;;;;;0.77;0.40;;;23.70;37.30;;;;;;5041039;28;87051;-58
2023/01/19 09:27:59;;;;;;;2.43;0.50;;;23.80;37.90;;;;;;5041484;28;87107;-58
2023/01/19 09:30:28;;;;;;;0.90;0.50;;;23.90;37.20;;;;;;5039793;27;87925;-58
2023/01/19 09:33:02;;;;;;;0.80;0.60;;;23.90;37.10;;;;;;5040821;28;88933;-58
2023/01/19 09:35:30;;;;;;;0.20;0.20;;;24.00;37.00;;;;;;5040658;28;86986;-58
2023/01/19 09:37:58;;;;;;;0.40;0.40;;;24.10;37.00;;;;;;5040895;28;87026;-58
2023/01/19 09:40:27;;;;;;;1.67;0.40;;;24.20;37.00;;;;;;5040332;28;89217;-58
2023/01/19 09:42:56;;;;;;;0.30;0.30;;;24.30;36.90;;;;;;5040497;28;87721;-58
2023/01/19 09:45:30;;;;;;;1.17;0.60;;;24.40;36.90;;;;;;5041757;28;87657;-58
2023/01/19 09:48:00;;;;;;;0.43;0.43;;;24.40;36.90;;;;;;5040068;28;86250;-58
2023/01/19 09:50:31;;;;;;;0.90;0.50;;;24.40;36.80;;;;;;5040720;28;87942;-58
2023/01/19 09:53:12;;;;;;;0.30;0.30;;;24.40;36.80;;;;;;5040736;28;88328;-58
2023/01/19 09:55:41;;;;;;;1.10;0.57;;;24.30;36.80;;;;;;5040218;28;87979;-58
2023/01/19 09:58:12;;;;;;;0.33;0.30;;;24.30;36.90;;;;;;5040875;28;87721;-58
2023/01/19 10:00:41;;;;;;;0.73;0.50;;;24.20;36.80;;;;;;5040435;28;89234;-58
2023/01/19 10:03:14;;;;;;;0.90;0.50;;;24.30;36.80;;;;;;5040924;28;88718;-58
2023/01/19 10:05:44;;;;;;;0.73;0.30;;;24.30;36.70;;;;;;5040891;28;87072;-58
2023/01/19 10:08:18;;;;;;;1.37;0.30;;;24.40;36.80;;;;;;5040710;28;86955;-59
2023/01/19 10:10:48;;;;;;;0.43;0.27;;;24.50;36.70;;;;;;5040162;28;90561;-59
2023/01/19 10:13:24;;;;;;;0.30;0.30;;;24.60;36.70;;;;;;5040910;28;89333;-58
2023/01/19 10:16:00;;;;;;;0.20;0.20;;;24.60;36.60;;;;;;5040695;27;86995;-59
2023/01/19 10:18:42;;;;;;;0.30;0.30;;;24.70;36.50;;;;;;5040340;28;87028;-58
2023/01/19 10:21:11;;;;;;;0.67;0.27;;;24.70;36.50;;;;;;5039982;27;90786;-58
2023/01/19 10:23:41;;;;;;;2.07;0.60;;;24.70;36.40;;;;;;5039434;28;88683;-57
2023/01/19 10:26:12;;;;;;;0.30;0.30;;;24.70;36.50;;;;;;5040731;28;87023;-58
2023/01/19 10:28:40;;;;;;;0.20;0.20;;;24.70;36.50;;;;;;5040729;27;87077;-57
2023/01/19 10:31:08;;;;;;;1.80;0.37;;;24.60;36.50;;;;;;5039880;28;89440;-58
2023/01/19 10:33:38;;;;;;;0.63;0.63;;;24.50;36.40;;;;;;5040191;27;87635;-58
2023/01/19 10:36:15;;;;;;;0.70;0.50;;;24.50;36.50;;;;;;5040409;27;86989;-58
2023/01/19 10:38:43;;;;;;;1.80;0.30;;;24.40;36.50;;;;;;5040492;27;86302;-58
2023/01/19 10:41:13;;;;;;;0.50;0.40;;;24.30;36.50;;;;;;5039336;28;87964;-58
2023/01/19 10:43:42;;;;;;;0.30;0.30;;;24.20;36.60;;;;;;5039612;28;88676;-58
2023/01/19 10:46:20;;;;;;;0.20;0.20;;;24.10;36.60;;;;;;5039546;27;87852;-58
2023/01/19 10:48:50;;;;;;;0.57;0.40;;;24.00;36.60;;;;;;5039989;28;87011;-58
2023/01/19 10:51:18;;;;;;;0.20;0.20;;;23.90;36.60;;;;;;5039849;28;88248;-58
2023/01/19 10:54:00;;;;;;;0.30;0.30;;;23.90;36.70;;;;;;5039777;28;88600;-58
2023/01/19 10:56:31;;;;;;;0.83;0.30;;;23.80;36.70;;;;;;5039602;28;87081;-58
2023/01/19 10:59:00;;;;;;;0.57;0.40;;;23.70;36.70;;;;;;5041479;27;87038;-59
2023/01/19 11:01:29;;;;;;;0.20;0.20;;;23.70;36.80;;;;;;5043199;28;88312;-58
2023/01/19 11:04:04;;;;;;;0.60;0.30;;;23.60;36.80;;;;;;5043628;28;88842;-58
2023/01/19 11:06:33;;;;;;;1.73;0.30;;;23.50;36.70;;;;;;5043576;28;87123;-58
2023/01/19 11:09:14;;;;;;;0.67;0.30;;;23.50;36.80;;;;;;5043304;28;87041;-58
2023/01/19 11:11:43;;;;;;;0.20;0.20;;;23.40;36.80;;;;;;5042914;28;89213;-58
2023/01/19 11:14:12;;;;;;;0.63;0.47;;;23.30;36.70;;;;;;5042686;27;88657;-58
2023/01/19 11:16:40;;;;;;;0.30;0.30;;;23.30;36.80;;;;;;5043385;28;86948;-58
2023/01/19 11:19:18;;;;;;;0.77;0.40;;;23.30;37.50;;;;;;5042727;28;87485;-58
2023/01/19 11:21:46;;;;;;;0.20;0.20;;;23.20;36.90;;;;;;5042641;28;88164;-57
2023/01/19 11:24:15;;;;;;;0.10;0.10;;;23.10;36.80;;;;;;5042333;27;87904;-58
2023/01/19 11:26:45;;;;;;;1.03;0.50;;;23.10;36.80;;;;;;5042465;28;87034;-58
2023/01/19 11:29:16;;;;;;;0.63;0.43;;;23.10;36.90;;;;;;5043358;28;86167;-58
2023/01/19 11:31:44;;;;;;;0.40;0.37;;;23.00;36.80;;;;;;5042074;28;89175;-58
2023/01/19 11:34:30;;;;;;;0.73;0.40;;;23.00;36.90;;;;;;5042753;28;87404;-58
2023/01/19 11:36:59;;;;;;;0.20;0.20;;;22.90;36.90;;;;;;5042273;28;87998;-58
2023/01/19 11:39:28;;;;;;;0.20;0.20;;;22.90;36.90;;;;;;5043007;28;87071;-58
2023/01/19 11:41:57;;;;;;;0.37;0.37;;;22.90;36.90;;;;;;5042627;27;87714;-58
2023/01/19 11:44:27;;;;;;;1.70;0.70;;;22.80;36.90;;;;;;5042096;27;88896;-58
2023/01/19 11:46:58;;;;;;;0.73;0.30;;;22.80;36.90;;;;;;5042587;28;86943;-58
2023/01/19 11:49:31;;;;;;;0.47;0.33;;;22.80;36.90;;;;;;5042560;28;87118;-58
2023/01/19 11:52:02;;;;;;;0.60;0.43;;;22.70;36.90;;;;;;5042081;27;89240;-58
2023/01/19 11:54:33;;;;;;;0.40;0.40;;;22.70;36.90;;;;;;5042305;28;88858;-59
2023/01/19 11:57:01;;;;;;;0.67;0.60;;;22.70;36.90;;;;;;5042055;28;87506;-58
2023/01/19 11:59:29;;;;;;;0.30;0.30;;;22.60;36.80;;;;;;5042278;28;87002;-58
2023/01/19 12:01:59;;;;;;;0.30;0.30;;;22.60;36.80;;;;;;5041260;28;89208;-57
2023/01/19 12:04:30;;;;;;;0.30;0.30;;;22.60;36.90;;;;;;5042173;28;88708;-58
2023/01/19 12:06:59;;;;;;;0.93;0.50;;;22.60;36.90;;;;;;5042612;28;86973;-58
2023/01/19 12:09:28;;;;;;;0.30;0.30;;;22.50;37.50;;;;;;5041824;27;87043;-58
2023/01/19 12:11:57;;;;;;;0.40;0.30;;;22.50;36.90;;;;;;5042120;28;88094;-58
2023/01/19 12:14:28;;;;;;;0.33;0.33;;;22.50;36.90;;;;;;5041388;28;87975;-58
2023/01/19 12:16:57;;;;;;;0.30;0.30;;;22.40;36.20;;;;;;5041878;28;87067;-59
2023/01/19 12:19:27;;;;;;;0.27;0.20;;;22.40;36.90;;;;;;5042993;28;86341;-58
2023/01/19 12:21:57;;;;;;;2.40;0.50;;;22.40;36.90;;;;;;5042066;28;89391;-58
2023/01/19 12:24:29;;;;;;;0.20;0.20;;;22.40;36.90;;;;;;5041451;27;87973;-59
2023/01/19 12:26:57;;;;;;;0.67;0.40;;;22.30;36.90;;;;;;5041730;27;88202;-58
2023/01/19 12:29:27;;;;;;;0.87;0.30;;;22.30;36.90;;;;;;5041568;28;87087;-58
2023/01/19 12:32:17;;;;;;;0.40;0.40;;;22.30;37.00;;;;;;5041484;28;88030;-58
2023/01/19 12:34:46;;;;;;;1.27;0.47;;;22.20;36.90;;;;;;5041331;27;87851;-58
2023/01/19 12:37:35;;;;;;;0.50;0.50;;;22.20;36.90;;;;;;5042113;28;87114;-58
2023/01/19 12:40:05;;;;;;;1.30;0.50;;;22.20;36.90;;;;;;5041555;28;87159;-58
2023/01/19 12:42:33;;;;;;;0.30;0.30;;;22.20;36.90;;;;;;5041277;28;89154;-58
2023/01/19 12:45:06;;;;;;;0.40;0.40;;;22.10;36.90;;;;;;5041264;27;87826;-59
2023/01/19 12:47:34;;;;;;;1.60;0.53;;;22.10;36.90;;;;;;5042019;28;87010;-58
2023/01/19 12:50:05;;;;;;;0.30;0.30;;;22.10;36.90;;;;;;5041318;28;87077;-58
2023/01/19 12:52:36;;;;;;;0.50;0.50;;;22.10;36.90;;;;;;5040868;28;90250;-59
2023/01/19 12:55:19;;;;;;;0.27;0.27;;;22.10;36.90;;;;;;5041495;28;89925;-57
2023/01/19 12:57:50;;;;;;;0.40;0.40;;;22.10;37.00;;;;;;5041841;27;87010;-57
2023/01/19 13:00:35;;;;;;;0.50;0.50;;;22.10;37.00;;;;;;5041523;28;87877;-58
2023/01/19 13:03:38;;;;;;;0.40;0.40;;;22.00;36.90;;;;;;5041010;28;88027;-58
2023/01/19 13:06:06;;;;;;;0.20;0.20;;;22.00;37.60;;;;;;5034015;27;88993;-59
2023/01/19 13:08:57;;;;;;;0.57;0.57;;;22.00;36.90;;;;;;5041471;27;87014;-60
2023/01/19 13:11:25;;;;;;;0.30;0.30;;;21.90;36.90;;;;;;5033739;28;86291;-58
2023/01/19 13:14:34;;;;;;;1.53;0.40;;;21.90;36.90;;;;;;5041370;28;89189;-58